Terminal Aerodrome Forecast
Issued by NWS Pueblo, CO

Home | Current Version | Previous Version | Text Only | Print | Product List | Glossary On
Versions: 1 2 3 4 5 6 7 8 9 10 11 12 13 14 15 16 17 18 19 20 21 22 23 24 25 26 27 28 29 30 31 32 33 34 35 36 37 38 39 40 41 42 43 44 45 46 47
000
FTUS45 KPUB 272320
TAFALS
TAF
KALS 272320Z 2800/2824 VRB03KT P6SM SKC
     FM280100 VRB03KT P6SM SCT250
     FM280600 VRB03KT 6SM BR FEW001 FEW100 BKN250
     FM281100 VRB03KT 1/4SM FZFG VV001=

USA.gov is the U.S. government's official web portal to all federal, state and local government web resources and services.